Time;durP1;ratioP1;P1;durP2;ratioP2;P2;SDS_P1;SDS_P2;PMS_P1;PMS_P2;Temp;Humidity;BMP_temperature;BMP_pressure;BME280_temperature;BME280_humidity;BME280_pressure;Samples;Min_cycle;Max_cycle;Signal;HPM_P1;HPM_P2
2023/03/18 00:00:31;;;;;;;7.03;5.20;;;;;;;18.62;41.20;101423.19;5073098;28;20047;-47
2023/03/18 00:02:59;;;;;;;8.23;4.53;;;;;;;18.61;41.35;101424.16;5055255;28;20513;-47
2023/03/18 00:05:26;;;;;;;7.40;4.63;;;;;;;18.61;41.33;101418.78;5054263;28;20041;-55
2023/03/18 00:07:53;;;;;;;8.18;5.35;;;;;;;18.62;41.27;101416.97;5055578;28;20068;-55
2023/03/18 00:10:21;;;;;;;8.93;5.35;;;;;;;18.60;41.14;101414.41;5054763;28;20491;-54
2023/03/18 00:12:48;;;;;;;7.05;5.00;;;;;;;18.60;41.36;101417.09;5054919;28;20049;-51
2023/03/18 00:15:17;;;;;;;9.73;5.65;;;;;;;18.60;41.11;101413.56;5054935;28;20044;-50
2023/03/18 00:17:47;;;;;;;8.55;4.82;;;;;;;18.59;41.09;101410.00;5055317;28;20056;-46
2023/03/18 00:20:17;;;;;;;8.20;5.03;;;;;;;18.59;41.19;101409.13;5054880;28;20037;-46
2023/03/18 00:22:45;;;;;;;7.80;5.18;;;;;;;18.59;40.98;101420.72;5053896;28;20060;-48
2023/03/18 00:25:13;;;;;;;7.70;4.85;;;;;;;18.58;41.15;101413.66;5054390;28;20057;-46
2023/03/18 00:27:41;;;;;;;5.25;4.10;;;;;;;18.58;41.18;101410.97;5054553;28;20048;-49
2023/03/18 00:30:09;;;;;;;6.97;4.90;;;;;;;18.58;41.08;101410.97;5055205;28;20045;-49
2023/03/18 00:32:37;;;;;;;5.78;4.57;;;;;;;18.56;41.20;101407.56;5054669;28;20048;-49
2023/03/18 00:35:05;;;;;;;8.52;5.05;;;;;;;18.57;41.06;101411.09;5054627;28;20048;-49
2023/03/18 00:37:34;;;;;;;9.02;5.13;;;;;;;18.56;41.07;101410.25;5053155;28;20049;-48
2023/03/18 00:40:06;;;;;;;6.95;4.68;;;;;;;18.55;41.07;101408.50;5054438;28;20063;-47
2023/03/18 00:42:41;;;;;;;6.20;4.68;;;;;;;18.56;41.10;101406.72;5054569;28;20053;-49
2023/03/18 00:45:10;;;;;;;6.82;5.05;;;;;;;18.57;41.04;101413.78;5057280;28;20052;-54
2023/03/18 00:47:38;;;;;;;8.52;5.28;;;;;;;18.56;41.10;101415.59;5074394;28;20052;-55
2023/03/18 00:50:07;;;;;;;7.10;4.93;;;;;;;18.54;41.06;101406.81;5073711;28;20052;-55
2023/03/18 00:52:36;;;;;;;8.18;4.90;;;;;;;18.54;41.08;101407.66;5073041;28;20049;-55
2023/03/18 00:55:05;;;;;;;10.38;5.30;;;;;;;18.54;40.98;101410.34;5056714;28;20056;-55
2023/03/18 00:57:34;;;;;;;5.75;4.68;;;;;;;18.54;41.25;101396.06;5073115;28;20063;-55
2023/03/18 01:00:05;;;;;;;7.28;5.07;;;;;;;18.53;40.93;101403.25;5073358;28;20059;-55
2023/03/18 01:02:33;;;;;;;6.85;4.70;;;;;;;18.54;41.09;101401.44;5073012;28;20044;-53
2023/03/18 01:05:01;;;;;;;5.65;4.15;;;;;;;18.53;41.02;101394.38;5073580;28;20059;-54
2023/03/18 01:07:28;;;;;;;6.20;4.10;;;;;;;18.53;41.08;101399.72;5073922;28;20059;-53
2023/03/18 01:09:56;;;;;;;7.32;4.97;;;;;;;18.53;41.03;101386.31;5073770;28;20056;-55
2023/03/18 01:12:24;;;;;;;7.90;4.97;;;;;;;18.52;40.99;101390.00;5072985;28;20051;-55
2023/03/18 01:14:51;;;;;;;6.50;4.35;;;;;;;18.51;41.08;101383.78;5070713;28;20075;-54
2023/03/18 01:17:19;;;;;;;6.35;4.68;;;;;;;18.51;41.00;101383.78;5052561;28;20049;-55
2023/03/18 01:19:47;;;;;;;6.80;4.72;;;;;;;18.52;41.11;101379.25;5053364;28;20053;-51
2023/03/18 01:22:15;;;;;;;7.25;4.90;;;;;;;18.50;40.97;101376.66;5052615;28;20091;-52
2023/03/18 01:24:46;;;;;;;6.82;4.70;;;;;;;18.50;40.87;101374.00;5051060;28;20045;-53
2023/03/18 01:27:15;;;;;;;5.10;3.90;;;;;;;18.50;40.88;101375.81;5052328;28;20067;-53
2023/03/18 01:29:45;;;;;;;5.65;4.55;;;;;;;18.50;41.03;101367.78;5052274;28;20057;-54
2023/03/18 01:32:19;;;;;;;7.32;4.32;;;;;;;18.49;40.99;101369.59;5052361;28;20045;-55
2023/03/18 01:34:46;;;;;;;6.53;4.10;;;;;;;18.50;40.87;101362.41;5051908;28;20521;-48
2023/03/18 01:37:14;;;;;;;6.00;3.97;;;;;;;18.49;41.02;101360.72;5052260;28;20515;-47
2023/03/18 01:39:45;;;;;;;7.22;4.40;;;;;;;18.48;41.04;101359.00;5051873;28;20068;-48
2023/03/18 01:42:21;;;;;;;6.90;4.45;;;;;;;18.48;40.87;101359.84;5051536;28;20045;-49
2023/03/18 01:44:48;;;;;;;5.30;3.95;;;;;;;18.49;40.82;101358.03;5052189;28;20049;-48
2023/03/18 01:47:16;;;;;;;5.88;4.28;;;;;;;18.48;40.88;101359.84;5059466;28;20049;-47
2023/03/18 01:49:51;;;;;;;5.80;4.22;;;;;;;18.47;40.86;101352.78;5072199;28;20051;-49
2023/03/18 01:52:25;;;;;;;5.15;3.97;;;;;;;18.48;40.93;101348.28;5073483;28;20045;-49
2023/03/18 01:55:09;;;;;;;6.53;4.63;;;;;;;18.47;40.85;101349.22;5072285;28;20509;-50
2023/03/18 01:57:36;;;;;;;;;;;;;;;18.47;40.92;101346.53;5073837;28;20044;-48
2023/03/18 02:00:05;;;;;;;5.55;4.57;;;;;;;18.48;40.90;101337.56;5072286;28;19920;-48
2023/03/18 02:02:41;;;;;;;5.47;4.07;;;;;;;18.47;40.95;101346.53;5079867;28;20052;-47
2023/03/18 02:05:12;;;;;;;6.15;3.80;;;;;;;18.46;40.84;101340.34;5070289;28;20055;-47
2023/03/18 02:07:43;;;;;;;7.32;4.00;;;;;;;18.46;40.89;101334.13;5051715;28;20051;-49
2023/03/18 02:10:23;;;;;;;5.68;4.20;;;;;;;18.45;40.96;101327.91;5051888;28;20057;-46
2023/03/18 02:12:59;;;;;;;5.93;4.30;;;;;;;18.46;40.86;101331.44;5051730;28;20045;-46
2023/03/18 02:15:33;;;;;;;5.70;3.95;;;;;;;18.45;41.02;101327.91;5051072;28;20057;-54
2023/03/18 02:18:09;;;;;;;6.28;4.40;;;;;;;18.44;40.81;101328.88;5051700;28;20053;-55
2023/03/18 02:20:59;;;;;;;6.93;3.97;;;;;;;18.44;40.86;101331.56;5051924;28;20049;-55
2023/03/18 02:23:47;;;;;;;6.78;3.88;;;;;;;18.45;40.85;101335.09;5051565;28;20060;-55
2023/03/18 02:26:45;;;;;;;5.00;3.88;;;;;;;18.44;40.89;101336.94;5067976;28;20055;-48
2023/03/18 02:29:26;;;;;;;4.75;3.67;;;;;;;18.44;40.91;101331.56;5072059;28;20054;-49
2023/03/18 02:32:03;;;;;;;5.80;4.32;;;;;;;18.44;40.91;101331.56;5071805;28;20048;-47
2023/03/18 02:34:32;;;;;;;5.25;3.58;;;;;;;18.44;40.97;101326.19;5073043;28;20044;-55
2023/03/18 02:37:00;;;;;;;5.90;4.53;;;;;;;18.42;40.91;101327.28;5072772;28;20051;-54
2023/03/18 02:39:30;;;;;;;5.38;3.95;;;;;;;18.43;40.84;101323.63;5071857;28;20040;-54
2023/03/18 02:41:59;;;;;;;5.13;4.10;;;;;;;18.42;40.89;101320.09;5072058;28;20067;-52
2023/03/18 02:44:28;;;;;;;5.88;3.80;;;;;;;18.42;40.91;101322.75;5071729;28;20059;-53
2023/03/18 02:47:21;;;;;;;5.50;3.80;;;;;;;18.41;40.83;101320.22;5072105;28;20071;-54
2023/03/18 02:49:49;;;;;;;7.25;4.38;;;;;;;18.41;40.85;101323.75;5071753;28;20041;-55
2023/03/18 02:52:16;;;;;;;8.30;3.85;;;;;;;18.42;40.82;101332.63;5071736;28;20045;-55
2023/03/18 02:54:43;;;;;;;6.63;4.38;;;;;;;18.40;40.83;101332.75;5071949;28;20075;-56
2023/03/18 02:57:11;;;;;;;6.40;3.80;;;;;;;18.40;40.85;101340.81;5071743;28;20056;-55
2023/03/18 02:59:41;;;;;;;6.03;4.00;;;;;;;18.40;40.90;101339.94;5071762;28;20071;-54
2023/03/18 03:02:08;;;;;;;5.05;3.78;;;;;;;18.40;40.88;101331.91;5072244;28;20044;-46
2023/03/18 03:04:35;;;;;;;5.95;4.10;;;;;;;18.40;40.73;101334.59;5071918;28;20044;-50
2023/03/18 03:07:03;;;;;;;5.28;3.70;;;;;;;18.39;40.92;101327.50;5072068;28;20406;-48
2023/03/18 03:09:42;;;;;;;6.00;3.85;;;;;;;18.39;41.04;101333.75;5075843;28;20071;-49
2023/03/18 03:12:09;;;;;;;5.88;4.05;;;;;;;18.40;40.81;101334.59;5076275;28;20045;-48
2023/03/18 03:14:42;;;;;;;5.40;3.78;;;;;;;18.39;40.85;101335.53;5075088;28;20517;-55
2023/03/18 03:17:11;;;;;;;8.02;4.25;;;;;;;18.38;40.89;101336.50;5075361;28;20403;-55
2023/03/18 03:19:39;;;;;;;7.45;4.28;;;;;;;18.36;40.80;101328.59;5076116;28;20049;-55
2023/03/18 03:22:06;;;;;;;5.32;4.03;;;;;;;18.38;40.81;101333.84;5075985;28;20352;-51
2023/03/18 03:24:34;;;;;;;9.27;4.30;;;;;;;18.37;40.95;101329.44;5074769;28;20411;-55
2023/03/18 03:27:02;;;;;;;7.25;4.07;;;;;;;18.37;40.71;101338.34;5074849;28;20052;-55
2023/03/18 03:29:29;;;;;;;6.28;3.85;;;;;;;18.37;40.83;101332.13;5074826;28;20049;-55
2023/03/18 03:31:57;;;;;;;6.40;3.70;;;;;;;18.35;40.71;101326.91;5076191;28;20045;-56
2023/03/18 03:34:24;;;;;;;4.80;3.80;;;;;;;18.37;40.78;101324.09;5075895;28;20051;-47
2023/03/18 03:36:52;;;;;;;5.72;3.70;;;;;;;18.36;40.87;101327.75;5075373;28;20060;-47
2023/03/18 03:39:19;;;;;;;6.10;3.83;;;;;;;18.35;40.79;101326.00;5074754;28;20055;-46
2023/03/18 03:41:47;;;;;;;6.53;3.92;;;;;;;18.35;40.98;101329.56;5075428;28;20043;-47
2023/03/18 03:44:16;;;;;;;4.28;3.42;;;;;;;18.35;40.93;101332.25;5074553;28;20644;-53
2023/03/18 03:46:48;;;;;;;7.85;4.03;;;;;;;18.35;40.86;101332.25;5076255;28;20119;-54
2023/03/18 03:49:15;;;;;;;6.75;4.25;;;;;;;18.34;40.88;101330.53;5075329;28;20044;-55
2023/03/18 03:51:43;;;;;;;5.65;3.45;;;;;;;18.34;40.86;101337.72;5074639;28;20052;-54
2023/03/18 03:54:12;;;;;;;7.68;4.00;;;;;;;18.34;40.89;101335.03;5075019;28;20049;-47
2023/03/18 03:56:40;;;;;;;5.28;3.63;;;;;;;18.33;40.81;101330.66;5074245;28;20498;-47
2023/03/18 03:59:09;;;;;;;6.72;4.38;;;;;;;18.33;40.88;101334.19;5075444;28;20055;-49
2023/03/18 04:01:54;;;;;;;5.97;3.78;;;;;;;18.33;41.01;101328.81;5082204;28;20052;-46
2023/03/18 04:04:23;;;;;;;6.53;3.75;;;;;;;18.33;41.04;101330.66;5074142;28;20056;-52
2023/03/18 04:06:50;;;;;;;4.90;3.58;;;;;;;18.34;40.85;101324.31;5074263;28;20048;-54
2023/03/18 04:09:18;;;;;;;5.38;3.88;;;;;;;18.32;40.97;101324.44;5074253;28;20059;-54
2023/03/18 04:11:45;;;;;;;6.78;4.00;;;;;;;18.32;41.12;101319.06;5075527;28;20052;-55
2023/03/18 04:14:13;;;;;;;5.15;3.42;;;;;;;18.32;40.97;101326.25;5074987;28;20055;-48
2023/03/18 04:16:41;;;;;;;5.05;3.53;;;;;;;18.33;41.01;101325.28;5056195;28;20538;-51
2023/03/18 04:19:09;;;;;;;6.78;3.60;;;;;;;18.31;41.01;101330.78;5053600;28;20056;-49
2023/03/18 04:21:36;;;;;;;6.18;3.83;;;;;;;18.31;40.89;101325.41;5053511;28;20060;-47
2023/03/18 04:24:03;;;;;;;6.03;4.03;;;;;;;18.31;41.07;101328.09;5054872;28;20045;-54
2023/03/18 04:26:31;;;;;;;5.55;3.65;;;;;;;18.31;41.06;101324.53;5053232;28;20371;-55
2023/03/18 04:29:02;;;;;;;6.00;3.88;;;;;;;18.31;41.15;101324.53;5052867;28;20053;-55
2023/03/18 04:31:30;;;;;;;5.07;3.47;;;;;;;18.31;41.16;101324.53;5053126;28;20502;-54
2023/03/18 04:33:58;;;;;;;4.45;3.30;;;;;;;18.30;41.23;101323.66;5053590;28;20044;-56
2023/03/18 04:36:27;;;;;;;5.63;3.38;;;;;;;18.31;41.13;101329.88;5053689;28;20380;-55
2023/03/18 04:38:58;;;;;;;6.60;3.72;;;;;;;18.29;41.09;101319.28;5053013;28;20702;-52
2023/03/18 04:41:26;;;;;;;5.00;3.42;;;;;;;18.30;41.19;101323.66;5037328;28;20051;-54
2023/03/18 04:43:57;;;;;;;5.40;3.58;;;;;;;18.28;41.18;101321.13;5053141;28;20053;-50
2023/03/18 04:46:32;;;;;;;8.57;4.05;;;;;;;18.29;41.36;101319.28;5053227;28;20049;-46
2023/03/18 04:49:00;;;;;;;5.18;3.33;;;;;;;18.29;41.24;101321.97;5053256;28;20099;-46
2023/03/18 04:51:29;;;;;;;4.35;3.53;;;;;;;18.29;41.36;101319.28;5053186;28;20079;-50
2023/03/18 04:53:56;;;;;;;5.10;3.58;;;;;;;18.28;41.49;101306.88;5053403;28;20056;-47
2023/03/18 04:56:28;;;;;;;5.53;3.53;;;;;;;18.28;41.44;101314.91;5052817;28;20064;-46
2023/03/18 04:58:57;;;;;;;7.38;3.33;;;;;;;18.28;41.27;101317.59;5053272;28;20063;-47
2023/03/18 05:01:29;;;;;;;4.70;3.03;;;;;;;18.27;41.43;101316.72;5054430;28;20056;-48
2023/03/18 05:03:57;;;;;;;4.40;3.13;;;;;;;18.27;41.31;101318.53;5060744;28;20502;-54
2023/03/18 05:06:32;;;;;;;4.10;3.42;;;;;;;18.27;41.34;101311.38;5052542;28;20052;-55
2023/03/18 05:09:05;;;;;;;5.13;3.67;;;;;;;18.26;41.46;101312.31;5052802;28;20053;-53
2023/03/18 05:11:34;;;;;;;4.70;3.53;;;;;;;18.27;41.47;101308.69;5052951;28;20049;-53
2023/03/18 05:14:27;;;;;;;;;;;;;;;18.25;41.43;101310.63;5054637;28;20068;-56
2023/03/18 05:16:55;;;;;;;5.68;2.92;;;;;;;18.26;41.39;101314.16;5053029;28;20260;-53
2023/03/18 05:19:24;;;;;;;6.22;3.63;;;;;;;18.26;41.45;101309.63;5052878;28;20067;-55
2023/03/18 05:22:14;;;;;;;4.93;3.10;;;;;;;18.26;41.42;101316.81;5053197;28;20071;-54
2023/03/18 05:24:47;;;;;;;4.78;2.97;;;;;;;18.26;41.52;101316.81;5052589;28;20060;-46
2023/03/18 05:27:17;;;;;;;4.85;3.17;;;;;;;18.25;41.39;101313.28;5052000;28;20116;-50
2023/03/18 05:29:53;;;;;;;4.32;3.22;;;;;;;18.24;41.54;101311.59;5068731;28;20053;-51
2023/03/18 05:32:31;;;;;;;6.35;3.30;;;;;;;18.25;41.42;101304.41;5072503;28;20059;-46
2023/03/18 05:35:02;;;;;;;4.22;2.90;;;;;;;18.24;41.39;101308.06;5072597;28;20371;-55
2023/03/18 05:37:32;;;;;;;4.68;3.40;;;;;;;18.24;41.48;101308.91;5072947;28;20057;-54
2023/03/18 05:40:08;;;;;;;6.88;3.10;;;;;;;18.24;41.39;101308.91;5072534;28;20055;-55
2023/03/18 05:42:37;;;;;;;4.82;2.85;;;;;;;18.24;41.46;101308.91;5072369;28;20056;-54
2023/03/18 05:45:26;;;;;;;4.88;2.92;;;;;;;18.24;41.48;101322.31;5072610;28;20371;-45
2023/03/18 05:47:56;;;;;;;4.55;3.05;;;;;;;18.24;41.39;101316.94;5072442;28;20506;-46
2023/03/18 05:50:31;;;;;;;4.97;3.30;;;;;;;18.24;41.61;101325.00;5072270;28;20052;-45
2023/03/18 05:53:01;;;;;;;3.75;3.03;;;;;;;18.23;41.37;101314.38;5059617;28;20045;-46
2023/03/18 05:55:36;;;;;;;5.43;3.58;;;;;;;18.22;41.34;101318.88;5052329;28;20056;-46
2023/03/18 05:58:03;;;;;;;6.15;3.13;;;;;;;18.23;41.48;101317.94;5051567;28;20060;-46
2023/03/18 06:00:34;;;;;;;5.18;3.10;;;;;;;18.22;41.39;101326.91;5051807;28;20056;-47
2023/03/18 06:03:01;;;;;;;5.20;3.00;;;;;;;18.22;41.39;101328.75;5052117;28;20045;-48
2023/03/18 06:05:29;;;;;;;6.72;3.35;;;;;;;18.22;41.28;101328.75;5051715;28;20053;-47
2023/03/18 06:07:58;;;;;;;5.22;2.92;;;;;;;18.22;41.44;101320.69;5051690;28;20060;-46
2023/03/18 06:10:26;;;;;;;4.45;2.97;;;;;;;18.21;41.49;101322.53;5052394;28;20052;-47
2023/03/18 06:12:54;;;;;;;4.60;3.03;;;;;;;18.22;41.49;101331.41;5051784;28;20060;-46
2023/03/18 06:15:23;;;;;;;5.75;3.15;;;;;;;18.21;41.33;101319.84;5051574;28;20471;-55
2023/03/18 06:17:51;;;;;;;5.53;3.10;;;;;;;18.22;41.22;101331.41;5052306;28;20060;-55
2023/03/18 06:20:19;;;;;;;5.03;3.05;;;;;;;18.22;41.29;101326.91;5051674;28;20053;-55
2023/03/18 06:22:50;;;;;;;7.43;3.42;;;;;;;18.21;41.13;101335.94;5051998;28;20049;-52
2023/03/18 06:25:19;;;;;;;6.60;3.47;;;;;;;18.22;41.24;101332.28;5053163;28;20052;-54
2023/03/18 06:27:49;;;;;;;4.45;3.15;;;;;;;18.23;41.00;101338.47;5051451;28;20057;-54
2023/03/18 06:30:19;;;;;;;5.63;2.90;;;;;;;18.22;41.08;101343.00;5049842;28;20060;-55
2023/03/18 06:32:47;;;;;;;5.07;2.65;;;;;;;18.22;41.01;101348.34;5053069;28;20057;-53
2023/03/18 06:35:15;;;;;;;5.18;2.65;;;;;;;18.22;40.86;101353.72;5051295;28;20364;-55
2023/03/18 06:37:43;;;;;;;6.82;3.08;;;;;;;18.22;40.97;101351.03;5051686;28;20064;-55
2023/03/18 06:40:11;;;;;;;6.50;3.22;;;;;;;18.22;41.00;101348.34;5052123;28;20068;-55
2023/03/18 06:42:40;;;;;;;7.35;2.80;;;;;;;18.23;40.92;101342.06;5061527;28;20387;-55
2023/03/18 06:45:24;;;;;;;5.35;3.22;;;;;;;18.23;40.94;101344.72;5075416;28;20056;-55
2023/03/18 06:47:59;;;;;;;4.15;2.60;;;;;;;18.23;41.21;101349.19;5076131;28;20055;-55
2023/03/18 06:50:27;;;;;;;6.47;3.03;;;;;;;18.23;40.92;101352.78;5075756;28;20079;-56
2023/03/18 06:52:55;;;;;;;4.82;2.80;;;;;;;18.23;40.83;101342.06;5075665;28;20071;-47
2023/03/18 06:55:27;;;;;;;5.07;2.47;;;;;;;18.23;40.84;101334.00;5076147;28;20493;-55
2023/03/18 06:57:57;;;;;;;4.75;3.10;;;;;;;18.23;40.81;101338.47;5075439;28;20063;-55
2023/03/18 07:00:32;;;;;;;5.53;3.00;;;;;;;18.23;40.90;101333.13;5075227;28;20478;-54
2023/03/18 07:03:00;;;;;;;6.72;3.33;;;;;;;18.23;40.96;101352.78;5075207;28;20060;-54
2023/03/18 07:05:28;;;;;;;5.40;3.38;;;;;;;18.23;40.96;101347.41;5075648;28;20045;-56
2023/03/18 07:07:55;;;;;;;5.97;2.97;;;;;;;18.23;40.95;101349.19;5075310;28;20524;-54
2023/03/18 07:10:27;;;;;;;4.85;3.08;;;;;;;18.23;40.73;101347.41;5075230;28;20048;-55
2023/03/18 07:13:01;;;;;;;5.80;2.80;;;;;;;18.23;40.85;101346.53;5075155;28;20048;-55
2023/03/18 07:15:29;;;;;;;5.55;3.22;;;;;;;18.23;40.96;101351.88;5068014;28;20053;-55
2023/03/18 07:17:59;;;;;;;3.47;2.90;;;;;;;18.23;40.96;101358.13;5054913;28;20056;-54
2023/03/18 07:20:27;;;;;;;6.30;3.03;;;;;;;18.22;41.00;101359.06;5056172;28;20419;-52
2023/03/18 07:22:55;;;;;;;4.30;2.90;;;;;;;18.23;41.01;101363.50;5055295;28;20064;-54
2023/03/18 07:25:22;;;;;;;3.63;2.70;;;;;;;18.23;40.94;101360.81;5055923;28;20045;-48
2023/03/18 07:27:50;;;;;;;4.57;3.00;;;;;;;18.23;40.80;101358.13;5056279;28;20048;-47
2023/03/18 07:30:19;;;;;;;7.45;3.30;;;;;;;18.23;40.85;101365.28;5054644;28;20044;-48
2023/03/18 07:32:46;;;;;;;4.80;2.88;;;;;;;18.23;40.87;101366.16;5054195;28;20045;-53
2023/03/18 07:35:14;;;;;;;4.55;2.65;;;;;;;18.22;40.76;101369.78;5054988;28;20045;-55
2023/03/18 07:37:42;;;;;;;5.43;3.50;;;;;;;18.22;40.70;101375.16;5056201;28;20045;-52
2023/03/18 07:40:10;;;;;;;4.82;2.47;;;;;;;18.23;40.89;101373.31;5055863;28;20491;-55
2023/03/18 07:42:37;;;;;;;3.90;2.60;;;;;;;18.23;40.99;101373.31;5055934;28;20045;-57
2023/03/18 07:45:06;;;;;;;4.45;2.80;;;;;;;18.24;41.08;101375.91;5055741;28;20483;-55
2023/03/18 07:47:34;;;;;;;4.28;2.92;;;;;;;18.25;40.65;101380.31;5055675;28;20045;-54
2023/03/18 07:50:01;;;;;;;4.63;2.70;;;;;;;18.28;41.08;101393.47;5075422;28;20063;-52
2023/03/18 07:52:28;;;;;;;7.13;5.05;;;;;;;18.25;38.07;101391.03;5075584;28;20049;-56
2023/03/18 07:54:56;;;;;;;7.90;6.18;;;;;;;18.15;37.51;101390.00;5075211;28;20045;-56
2023/03/18 07:57:23;;;;;;;9.43;6.72;;;;;;;18.05;38.18;101388.91;5075854;28;20052;-56
2023/03/18 07:59:50;;;;;;;8.10;5.70;;;;;;;17.98;37.80;101390.31;5075414;28;20494;-56
2023/03/18 08:02:19;;;;;;;9.45;6.18;;;;;;;17.93;37.95;101390.66;5074925;28;20048;-56
2023/03/18 08:04:46;;;;;;;12.15;7.75;;;;;;;17.89;37.54;101401.69;5067224;28;20041;-56
2023/03/18 08:07:13;;;;;;;12.20;7.22;;;;;;;17.84;37.42;101402.03;5054955;28;20047;-55
2023/03/18 08:09:41;;;;;;;9.02;6.53;;;;;;;17.79;37.84;101406.84;5055431;28;20049;-55
2023/03/18 08:12:08;;;;;;;7.63;6.38;;;;;;;17.77;37.76;101404.25;5055662;28;20049;-56
2023/03/18 08:14:36;;;;;;;8.00;6.05;;;;;;;17.78;37.73;101410.47;5055421;28;20044;-49
2023/03/18 08:17:03;;;;;;;8.38;5.85;;;;;;;17.81;38.44;101417.44;5055223;28;20049;-52
2023/03/18 08:19:31;;;;;;;7.22;4.90;;;;;;;17.85;39.41;101402.88;5055435;28;20049;-50
2023/03/18 08:21:58;;;;;;;5.15;4.38;;;;;;;17.91;39.90;101397.09;5055148;28;20045;-50
2023/03/18 08:24:26;;;;;;;7.38;4.28;;;;;;;17.95;40.24;101399.44;5055111;28;20041;-54
2023/03/18 08:26:54;;;;;;;9.65;4.53;;;;;;;18.00;40.47;101401.78;5054896;28;20399;-56
2023/03/18 08:29:22;;;;;;;10.32;3.83;;;;;;;18.05;40.81;101407.69;5054939;28;20041;-55
2023/03/18 08:31:50;;;;;;;6.63;3.35;;;;;;;18.11;41.74;101411.72;5053464;28;20045;-56
2023/03/18 08:34:17;;;;;;;5.22;3.25;;;;;;;18.13;41.41;101402.63;5054954;28;20391;-47
2023/03/18 08:36:45;;;;;;;5.63;3.65;;;;;;;18.17;41.07;101412.16;5054755;28;20041;-51
2023/03/18 08:39:12;;;;;;;6.05;3.15;;;;;;;18.20;41.30;101408.41;5055128;28;20048;-50
2023/03/18 08:41:39;;;;;;;7.90;5.03;;;;;;;18.21;40.27;101404.75;5054638;28;20052;-49
2023/03/18 08:44:09;;;;;;;7.00;3.75;;;;;;;18.23;41.06;101406.38;5054369;28;20053;-50
2023/03/18 08:46:37;;;;;;;7.22;4.30;;;;;;;18.26;41.04;101402.59;5055074;28;20052;-46
2023/03/18 08:49:06;;;;;;;5.40;3.60;;;;;;;18.27;41.37;101402.50;5054518;28;20052;-47
2023/03/18 08:51:33;;;;;;;7.72;3.50;;;;;;;18.29;41.33;101405.91;5053235;28;20041;-45
2023/03/18 08:54:08;;;;;;;7.70;3.50;;;;;;;18.31;41.33;101405.81;5054661;28;20415;-51
2023/03/18 08:56:35;;;;;;;10.15;3.47;;;;;;;18.34;41.32;101399.34;5073416;28;20055;-48
2023/03/18 08:59:02;;;;;;;4.65;3.17;;;;;;;18.35;41.31;101391.22;5074813;28;20406;-51
2023/03/18 09:01:30;;;;;;;11.65;3.13;;;;;;;18.39;41.32;101402.56;5073986;28;20056;-49
2023/03/18 09:03:58;;;;;;;6.90;3.33;;;;;;;18.39;41.65;101405.22;5073304;28;20044;-47
2023/03/18 09:06:27;;;;;;;5.97;3.53;;;;;;;18.41;41.91;101401.47;5072883;28;20049;-50
2023/03/18 09:08:55;;;;;;;5.75;3.03;;;;;;;18.42;42.07;101396.97;5074142;28;20055;-48
2023/03/18 09:11:23;;;;;;;8.38;3.67;;;;;;;18.43;42.02;101394.19;5074222;28;20059;-46
2023/03/18 09:13:51;;;;;;;10.77;3.60;;;;;;;18.44;42.33;101395.06;5074694;28;20521;-50
2023/03/18 09:16:18;;;;;;;6.18;2.95;;;;;;;18.45;42.09;101389.56;5074221;28;20040;-56
2023/03/18 09:18:45;;;;;;;6.07;2.67;;;;;;;18.47;42.03;101395.69;5074266;28;20056;-56
2023/03/18 09:21:16;;;;;;;5.55;3.15;;;;;;;18.47;42.03;101395.69;5074266;28;20049;-56
2023/03/18 09:23:49;;;;;;;6.18;3.50;;;;;;;18.48;42.36;101388.50;5074257;28;20045;-49
2023/03/18 09:26:19;;;;;;;8.52;3.08;;;;;;;18.48;42.02;101396.53;5056302;28;20045;-55
2023/03/18 09:28:47;;;;;;;8.13;3.35;;;;;;;18.47;42.04;101393.00;5073451;28;20410;-55
2023/03/18 09:31:14;;;;;;;5.47;3.40;;;;;;;18.47;41.87;101392.13;5073186;28;20399;-55
2023/03/18 09:33:42;;;;;;;6.55;2.95;;;;;;;18.47;42.02;101389.44;5073269;28;20411;-55
2023/03/18 09:36:09;;;;;;;5.85;3.20;;;;;;;18.46;42.02;101393.09;5073421;28;20044;-46
2023/03/18 09:38:37;;;;;;;4.40;2.78;;;;;;;18.45;41.87;101392.25;5073474;28;20486;-49
2023/03/18 09:41:34;;;;;;;7.07;3.33;;;;;;;18.46;41.88;101398.47;5073315;28;20044;-47
2023/03/18 09:44:13;;;;;;;6.75;2.95;;;;;;;18.46;41.84;101403.81;5073429;28;20041;-46
2023/03/18 09:46:57;;;;;;;6.65;2.92;;;;;;;18.47;41.63;101394.81;5073308;28;20073;-48
2023/03/18 09:49:41;;;;;;;11.20;3.60;;;;;;;18.46;41.49;101391.28;5073204;28;20506;-48
2023/03/18 09:52:15;;;;;;;12.05;4.28;;;;;;;18.46;41.35;101395.78;5073170;28;20511;-48
2023/03/18 09:54:51;;;;;;;5.07;2.83;;;;;;;18.45;41.45;101391.41;5073036;28;20043;-50
2023/03/18 09:57:26;;;;;;;9.20;2.90;;;;;;;18.46;41.51;101387.75;5073080;28;20051;-48
2023/03/18 10:00:16;;;;;;;7.05;2.97;;;;;;;18.46;41.42;101385.06;5073175;28;20052;-51
2023/03/18 10:02:50;;;;;;;6.72;3.05;;;;;;;18.46;41.39;101388.59;5073077;28;20047;-49
2023/03/18 10:05:29;;;;;;;5.63;2.95;;;;;;;18.46;41.58;101388.59;5073154;28;20043;-54
2023/03/18 10:08:03;;;;;;;5.32;2.90;;;;;;;18.45;41.44;101384.22;5072922;28;20056;-54
2023/03/18 10:10:37;;;;;;;8.05;3.22;;;;;;;18.45;41.22;101394.94;5073077;28;20299;-55
2023/03/18 10:13:16;;;;;;;6.20;2.85;;;;;;;18.46;41.13;101390.41;5073002;28;20048;-54
2023/03/18 10:15:47;;;;;;;4.40;3.03;;;;;;;18.45;41.09;101386.88;5073183;28;20478;-51
2023/03/18 10:18:31;;;;;;;7.72;2.72;;;;;;;18.46;41.17;101387.75;5072943;28;20056;-54
2023/03/18 10:21:26;;;;;;;4.60;2.78;;;;;;;18.46;41.06;101383.22;5072814;28;20049;-55
2023/03/18 10:24:14;;;;;;;4.82;2.53;;;;;;;18.46;41.10;101382.38;5072872;28;20063;-56
2023/03/18 10:27:09;;;;;;;6.55;2.95;;;;;;;18.46;41.13;101379.69;5072688;28;20052;-46
2023/03/18 10:30:03;;;;;;;5.90;3.08;;;;;;;18.46;41.10;101371.66;5072317;28;20421;-47
2023/03/18 10:32:34;;;;;;;9.95;3.42;;;;;;;18.45;40.96;101362.75;5071393;28;20072;-49
2023/03/18 10:36:00;;;;;;;4.50;2.67;;;;;;;18.46;41.09;101360.94;5072883;28;20406;-54
2023/03/18 10:38:39;;;;;;;7.15;2.97;;;;;;;18.45;40.93;101360.06;5071404;28;20522;-54
2023/03/18 10:41:29;;;;;;;4.13;2.78;;;;;;;18.46;40.85;101355.56;5072781;28;20045;-52
2023/03/18 10:43:57;;;;;;;5.25;2.67;;;;;;;18.46;40.88;101358.25;5073004;28;20059;-55
2023/03/18 10:46:25;;;;;;;5.22;2.70;;;;;;;18.46;40.98;101358.25;5072793;28;20048;-54
2023/03/18 10:49:07;;;;;;;4.72;2.45;;;;;;;18.45;40.99;101357.41;5072678;28;20118;-55
2023/03/18 10:51:37;;;;;;;4.72;2.70;;;;;;;18.46;41.15;101353.75;5072592;28;20055;-55
2023/03/18 10:54:12;;;;;;;5.88;2.50;;;;;;;18.46;40.98;101351.06;5072822;28;20055;-46
2023/03/18 10:56:39;;;;;;;4.47;2.53;;;;;;;18.46;40.97;101351.06;5071211;28;20053;-48
2023/03/18 10:59:19;;;;;;;6.20;2.88;;;;;;;18.47;40.93;101349.22;5072445;28;20052;-56
2023/03/18 11:01:51;;;;;;;3.80;2.50;;;;;;;18.46;40.96;101353.75;5072615;28;20048;-57
2023/03/18 11:04:22;;;;;;;5.57;2.85;;;;;;;18.47;41.05;101355.47;5072581;28;20044;-55
2023/03/18 11:07:02;;;;;;;6.30;2.40;;;;;;;18.47;41.23;101346.53;5072459;28;20049;-56
2023/03/18 11:09:32;;;;;;;4.68;2.70;;;;;;;18.47;41.11;101354.59;5072457;28;20059;-54
2023/03/18 11:12:05;;;;;;;4.30;2.85;;;;;;;18.47;40.86;101354.59;5072378;28;20050;-53
2023/03/18 11:14:36;;;;;;;5.28;3.13;;;;;;;18.46;40.81;101347.53;5072530;28;20040;-50
2023/03/18 11:17:17;;;;;;;4.25;2.60;;;;;;;18.47;40.87;101358.16;5072571;28;20049;-57
2023/03/18 11:19:48;;;;;;;4.93;2.55;;;;;;;18.46;40.80;101355.56;5070933;28;20056;-48
2023/03/18 11:22:19;;;;;;;5.53;2.83;;;;;;;18.47;40.71;101354.59;5072321;28;20052;-46
2023/03/18 11:25:00;;;;;;;6.38;2.88;;;;;;;18.47;40.62;101355.47;5072355;28;20068;-55
2023/03/18 11:27:36;;;;;;;4.15;2.40;;;;;;;18.48;40.61;101359.00;5072438;28;20045;-55
2023/03/18 11:30:23;;;;;;;4.38;2.55;;;;;;;18.46;40.49;101353.75;5075720;28;20064;-54
2023/03/18 11:33:11;;;;;;;4.45;2.80;;;;;;;18.47;40.58;101351.91;5075892;28;20538;-54
2023/03/18 11:35:57;;;;;;;5.15;2.50;;;;;;;18.46;40.41;101343.00;5075949;28;20103;-46
2023/03/18 11:38:30;;;;;;;5.45;2.53;;;;;;;18.46;40.45;101345.69;5075714;28;20052;-54
2023/03/18 11:41:26;;;;;;;4.68;2.63;;;;;;;18.48;40.48;101345.59;5075647;28;20040;-55
2023/03/18 11:44:00;;;;;;;4.28;2.45;;;;;;;18.46;40.69;101337.66;5074795;28;20049;-47